Latest Weather Observations for Urandangi

IDQ60801

Issued at 7:05 pm EST Saturday 23 August 2014 (issued every 30 minutes, with the page automatically refreshed every 10 minutes)

About weather observations | Map of weather stations | Latest weather observations for QLD | Other Formats
Station Details ID: 037058 Name: URANDANGI AERODROME Lat: -21.60 Lon: 138.37 Height: 178.6 m
Data from the previous 72 hours. | See also: Recent months at Urandangi
Date/Time
EST
Temp
°C
App
Temp
°C
Dew
Point
Rel
Hum
%
Delta-T
°C
Wind Press
QNH
hPa
Press
MSL
hPa
Rain
since 9 am
mm
Dir
 
Spd
km/h
Gust
km/h
Spd
kts
Gust
kts
23/07:00pm 24.8 19.8 -1.1 18 11.7 SSE 15 19 8 10 1018.9 1018.5 0.0
23/06:30pm 26.1 21.0 -1.7 16 12.6 SE 15 24 8 13 1018.5 1018.1 0.0
23/06:00pm 27.4 21.6 -1.5 15 13.3 SE 19 30 10 16 1018.2 1017.8 0.0
23/05:30pm 28.2 23.1 -1.8 14 13.8 ESE 15 26 8 14 1018.1 1017.7 0.0
23/05:00pm 28.3 22.4 -0.8 15 13.6 SE 20 28 11 15 1017.9 1017.5 0.0
23/04:30pm 28.9 22.2 -1.2 14 14.1 SSE 24 33 13 18 1017.7 1017.4 0.0
23/04:00pm 28.7 23.3 -1.4 14 14.0 SE 17 33 9 18 1017.9 1017.5 0.0
23/03:30pm 29.2 23.1 -2.0 13 14.4 SE 20 37 11 20 1018.0 1017.6 0.0
23/03:00pm 28.8 22.8 -1.3 14 14.0 SE 20 32 11 17 1018.1 1017.7 0.0
23/02:30pm 29.0 22.3 -1.2 14 14.1 ESE 24 37 13 20 1018.5 1018.1 0.0
23/02:00pm 29.0 23.4 -0.2 15 13.9 SE 19 32 10 17 1018.6 1018.2 0.0
23/01:30pm 28.7 23.8 -0.5 15 13.8 SE 15 24 8 13 1019.2 1018.8 0.0
23/01:00pm 28.3 22.4 -0.8 15 13.6 E 20 39 11 21 1019.6 1019.2 0.0
23/12:30pm 27.4 22.7 1.0 18 12.7 E 15 24 8 13 1020.1 1019.7 0.0
23/12:00pm 27.2 22.1 3.0 21 12.0 ESE 19 32 10 17 1020.5 1020.2 0.0
23/11:30am 26.0 20.9 3.3 23 11.3 E 19 28 10 15 1021.0 1020.7 0.0
23/11:00am 24.3 19.6 3.0 25 10.4 E 17 26 9 14 1021.5 1021.2 0.0
23/10:30am 23.1 19.1 3.1 27 9.7 ESE 13 19 7 10 1021.8 1021.5 0.0
23/10:00am 21.0 16.5 2.3 29 8.8 SE 15 20 8 11 1021.8 1021.5 0.0
23/09:30am 18.7 13.9 0.3 29 8.2 SE 15 20 8 11 1021.9 1021.6 0.0
23/09:00am 17.0 12.1 -0.2 31 7.4 SE 15 20 8 11 1021.8 1021.5 0.0
23/08:30am 15.3 10.3 -0.9 33 6.8 SE 15 20 8 11 1021.5 1021.2 0.0
23/08:00am 12.2 8.9 -1.3 39 5.4 SSE 6 9 3 5 1021.2 1020.9 0.0
23/07:30am 9.9 6.5 -1.8 44 4.5 SSE 6 7 3 4 1020.9 1020.6 0.0
23/07:00am 9.0 5.6 -2.0 46 4.2 SE 6 7 3 4 1020.5 1020.2 0.0
23/06:30am 9.0 5.6 -2.3 45 4.3 SE 6 7 3 4 1020.3 1019.9 0.0
23/06:00am 10.0 6.6 -2.0 43 4.6 SSE 6 7 3 4 1020.0 1019.6 0.0
23/05:30am 11.7 8.2 -1.1 41 5.2 SSE 7 9 4 5 1019.5 1019.1 0.0
23/05:00am 12.0 7.8 -1.2 40 5.3 S 11 13 6 7 1019.2 1018.8 0.0
23/04:30am 12.1 7.9 -1.1 40 5.3 S 11 13 6 7 1019.1 1018.7 0.0
23/04:00am 11.5 7.6 -1.3 41 5.1 SSE 9 13 5 7 1019.2 1018.8 0.0
23/03:30am 12.9 8.6 -1.4 37 5.8 SSE 11 13 6 7 1019.1 1018.7 0.0
23/03:00am 14.3 10.0 -1.3 34 6.4 SSE 11 13 6 7 1019.2 1018.8 0.0
23/02:30am 16.1 10.7 -1.0 31 7.2 S 17 20 9 11 1019.4 1019.0 0.0
23/02:00am 16.7 11.4 -0.5 31 7.4 S 17 22 9 12 1019.3 1018.9 0.0
23/01:30am 17.4 12.1 -0.8 29 7.8 SSE 17 26 9 14 1019.4 1019.0 0.0
23/01:00am 17.7 12.0 -0.5 29 7.8 S 19 24 10 13 1019.5 1019.1 0.0
23/12:30am 18.0 12.7 -0.8 28 8.1 S 17 24 9 13 1019.7 1019.3 0.0
23/12:00am 17.4 12.5 -0.8 29 7.8 S 15 20 8 11 1019.8 1019.4 0.0
 
Date/Time
EST
Temp
°C
App
Temp
°C
Dew
Point
Rel
Hum
%
Delta-T
°C
Wind Press
QNH
hPa
Press
MSL
hPa
Rain
since 9 am
mm
Dir
 
Spd
km/h
Gust
km/h
Spd
kts
Gust
kts
22/11:30pm 17.1 12.6 -0.6 30 7.6 S 13 15 7 8 1019.8 1019.4 0.0
22/11:00pm 17.5 12.9 -0.7 29 7.8 S 13 17 7 9 1019.7 1019.3 0.0
22/10:30pm 18.2 13.7 -0.6 28 8.2 S 13 17 7 9 1019.6 1019.2 0.0
22/10:00pm 18.4 14.3 -0.4 28 8.2 S 11 15 6 8 1019.6 1019.2 0.0
22/09:30pm 17.6 13.4 -1.1 28 8.0 S 11 13 6 7 1019.4 1019.0 0.0
22/09:00pm 18.4 14.2 -0.9 27 8.3 S 11 13 6 7 1019.3 1018.9 0.0
22/08:30pm 19.2 15.0 -0.7 26 8.7 S 11 15 6 8 1019.0 1018.6 0.0
22/08:00pm 19.8 15.7 -0.2 26 8.8 S 11 13 6 7 1018.7 1018.3 0.0
22/07:30pm 20.7 16.5 -0.6 24 9.4 S 11 13 6 7 1018.3 1017.9 0.0
22/07:00pm 22.4 17.9 -0.3 22 10.2 SSE 13 15 7 8 1017.6 1017.3 0.0
22/06:30pm 24.2 19.0 -0.2 20 11.2 SSE 17 20 9 11 1017.3 1017.0 0.0
22/06:00pm 25.6 20.1 0.3 19 11.8 SE 19 28 10 15 1017.1 1016.8 0.0
22/05:30pm 26.2 20.0 0.0 18 12.3 SSE 22 35 12 19 1016.9 1016.6 0.0
22/05:00pm 26.4 20.4 -1.4 16 12.7 SE 20 30 11 16 1016.7 1016.4 0.0
22/04:30pm 27.0 21.2 -0.1 17 12.7 SE 20 30 11 16 1016.6 1016.3 0.0
22/04:00pm 26.9 21.1 -0.2 17 12.7 SSE 20 30 11 16 1016.7 1016.4 0.0
22/03:30pm 27.0 21.4 -0.1 17 12.7 SE 19 32 10 17 1016.7 1016.4 0.0
22/03:00pm 27.3 22.4 1.7 19 12.4 S 17 20 9 11 1016.9 1016.6 0.0
22/02:30pm 26.3 20.3 0.9 19 12.1 SE 22 30 12 16 1017.4 1017.1 0.0
22/02:00pm 26.4 21.5 1.7 20 11.9 SE 17 30 9 16 1017.7 1017.4 0.0
22/01:30pm 25.7 20.3 2.4 22 11.4 SE 20 32 11 17 1018.3 1017.9 0.0
22/01:00pm 25.7 19.4 1.8 21 11.5 SE 24 33 13 18 1018.7 1018.3 0.0
22/12:30pm 25.4 18.3 1.5 21 11.4 SE 28 37 15 20 1019.2 1018.8 0.0
22/12:00pm 24.2 17.4 0.5 21 11.0 SE 26 35 14 19 1020.0 1019.6 0.0
22/11:30am 23.8 17.8 0.8 22 10.7 SE 22 32 12 17 1020.9 1020.6 0.0
22/11:00am 22.4 17.0 1.4 25 9.8 SSE 19 28 10 15 1021.4 1021.1 0.0
22/10:30am 20.8 15.5 1.6 28 8.9 SSE 19 24 10 13 1021.6 1021.3 0.0
22/10:00am 19.1 13.5 1.1 30 8.1 SE 20 26 11 14 1021.7 1021.4 0.0
22/09:30am 17.1 11.9 0.3 32 7.3 SSE 17 24 9 13 1021.8 1021.5 0.0
22/09:00am 15.3 10.8 -0.4 34 6.6 SSE 13 17 7 9 1021.6 1021.3 0.0
22/08:30am 13.6 9.4 -0.8 37 6.0 SSE 11 15 6 8 1021.4 1021.1 0.0
22/08:00am 9.4 6.0 -1.9 45 4.3 S 6 7 3 4 1021.1 1020.8 0.0
22/07:30am 7.0 3.3 -2.7 50 3.6 S 7 7 4 4 1020.9 1020.6 0.0
22/07:00am 6.7 3.3 -2.2 53 3.3 S 6 7 3 4 1020.9 1020.6 0.0
22/06:30am 5.8 2.1 -3.3 52 3.2 S 7 9 4 5 1020.5 1020.2 0.0
22/06:00am 6.3 2.6 -3.3 50 3.4 S 7 9 4 5 1020.2 1019.8 0.0
22/05:30am 7.4 3.8 -2.3 50 3.6 S 7 9 4 5 1020.0 1019.6 0.0
22/05:00am 8.0 4.6 -2.3 48 3.9 S 6 7 3 4 1019.7 1019.3 0.0
22/04:30am 7.7 4.0 -4.4 42 4.3 S 6 7 3 4 1019.6 1019.2 0.0
22/04:00am 8.6 4.9 -2.6 45 4.2 SSE 7 9 4 5 1019.5 1019.1 0.0
22/03:30am 8.7 5.0 -3.2 43 4.4 SSE 7 9 4 5 1019.6 1019.2 0.0
22/03:00am 9.1 5.4 -2.5 44 4.4 S 7 9 4 5 1019.6 1019.2 0.0
22/02:30am 8.7 4.9 -3.8 41 4.6 S 7 11 4 6 1019.6 1019.2 0.0
22/02:00am 8.7 4.9 -4.1 40 4.6 S 7 9 4 5 1019.8 1019.4 0.0
22/01:30am 9.0 5.2 -5.6 35 5.1 S 6 7 3 4 1020.1 1019.7 0.0
22/01:00am 9.2 5.7 -5.8 34 5.2 S 4 6 2 3 1020.3 1019.9 0.0
22/12:30am 10.0 6.2 -5.1 34 5.4 S 6 7 3 4 1020.3 1019.9 0.0
22/12:00am 10.0 6.2 -5.1 34 5.4 S 6 6 3 3 1020.4 1020.1 0.0
 
Date/Time
EST
Temp
°C
App
Temp
°C
Dew
Point
Rel
Hum
%
Delta-T
°C
Wind Press
QNH
hPa
Press
MSL
hPa
Rain
since 9 am
mm
Dir
 
Spd
km/h
Gust
km/h
Spd
kts
Gust
kts
21/11:30pm 10.7 7.3 -5.3 32 5.8 S 4 6 2 3 1020.5 1020.2 0.0
21/11:00pm 10.9 7.2 -4.7 33 5.7 S 6 9 3 5 1020.4 1020.1 0.0
21/10:30pm 11.8 7.9 -4.8 31 6.1 S 7 9 4 5 1020.2 1019.8 0.0
21/10:00pm 13.0 8.8 -3.7 31 6.4 S 9 9 5 5 1020.2 1019.8 0.0
21/09:30pm 12.8 8.9 -4.3 30 6.5 S 7 9 4 5 1020.1 1019.7 0.0
21/09:00pm 14.1 9.9 -4.1 28 7.0 S 9 11 5 6 1020.0 1019.6 0.0
21/08:30pm 15.1 11.2 -4.2 26 7.5 S 7 9 4 5 1019.6 1019.2 0.0
21/08:00pm 16.3 12.4 -4.3 24 8.1 S 7 9 4 5 1019.3 1018.9 0.0
21/07:30pm 17.4 13.6 -3.9 23 8.6 SSE 7 7 4 4 1018.8 1018.4 0.0
21/07:00pm 18.8 14.1 -4.6 20 9.4 SSE 11 13 6 7 1018.4 1018.0 0.0
21/06:30pm 21.1 15.7 -4.1 18 10.5 S 15 20 8 11 1017.9 1017.5 0.0
21/06:00pm 22.3 16.0 -3.9 17 11.0 SSE 20 30 11 16 1017.4 1017.1 0.0
21/05:30pm 22.8 16.1 -4.3 16 11.4 SE 22 30 12 16 1017.2 1016.9 0.0
21/05:00pm 23.3 17.2 -3.9 16 11.5 SE 19 30 10 16 1016.9 1016.6 0.0
21/04:30pm 23.5 17.6 -5.5 14 12.0 S 17 26 9 14 1016.7 1016.4 0.0
21/04:00pm 23.3 16.8 -5.7 14 11.9 S 20 33 11 18 1016.7 1016.4 0.0
21/03:30pm 23.7 18.3 -4.4 15 11.9 SSE 15 28 8 15 1016.9 1016.6 0.0
21/03:00pm 23.2 17.8 -4.8 15 11.7 SSE 15 26 8 14 1017.0 1016.7 0.0
21/02:30pm 22.8 17.5 -3.5 17 11.2 SSE 15 24 8 13 1017.4 1017.1 0.0
21/02:00pm 22.8 17.2 -2.7 18 11.0 SSE 17 26 9 14 1017.7 1017.4 0.0
21/01:30pm 22.1 16.8 -3.3 18 10.8 SSE 15 28 8 15 1018.2 1017.8 0.0
21/01:00pm 22.2 16.7 -1.8 20 10.5 SE 17 28 9 15 1018.7 1018.3 0.0
21/12:30pm 21.3 16.6 -1.9 21 10.1 SSE 13 24 7 13 1019.2 1018.8 0.0
21/12:00pm 21.1 15.6 -2.0 21 10.0 SE 17 28 9 15 1019.8 1019.4 0.0
21/11:30am 20.9 15.3 0.2 25 9.3 SE 19 30 10 16 1020.3 1019.9 0.0
21/11:00am 20.0 14.8 -0.1 26 8.9 SE 17 24 9 13 1020.7 1020.4 0.0
21/10:30am 18.4 12.7 -0.9 27 8.3 SSE 19 24 10 13 1021.0 1020.7 0.0
21/10:00am 16.9 11.1 -1.7 28 7.8 SE 19 24 10 13 1021.1 1020.8 0.0
21/09:30am 15.5 9.5 -2.9 28 7.4 S 19 26 10 14 1020.9 1020.6 0.0
21/09:00am 13.1 7.7 -4.1 30 6.5 SSE 15 19 8 10 1021.0 1020.7 0.0
21/08:30am 10.3 6.0 -4.9 34 5.5 SSE 9 11 5 6 1020.8 1020.5 0.0
21/08:00am 7.2 3.4 -5.1 41 4.3 S 6 7 3 4 1020.5 1020.2 0.0
21/07:30am 4.7 0.9 -5.9 46 3.5 S 6 7 3 4 1020.4 1020.1 0.0
21/07:00am 4.0 0.2 -5.7 49 3.2 S 6 7 3 4 1020.2 1019.8 0.0
21/06:30am 3.8 -0.3 -6.5 47 3.3 S 7 7 4 4 1019.9 1019.5 0.0
21/06:00am 3.7 0.1 -7.7 43 3.5 S 4 4 2 2 1019.7 1019.3 0.0
21/05:30am 4.9 0.9 -5.7 46 3.5 S 7 7 4 4 1019.6 1019.2 0.0
21/05:00am 6.1 2.1 -5.2 44 3.8 S 7 9 4 5 1019.6 1019.2 0.0
21/04:30am 5.7 1.9 -5.3 45 3.7 S 6 7 3 4 1019.5 1019.1 0.0
21/04:00am 6.6 3.2 -5.1 43 4.0 S 4 6 2 3 1019.6 1019.2 0.0
21/03:30am 7.2 3.4 -5.5 40 4.4 S 6 7 3 4 1019.7 1019.3 0.0
21/03:00am 7.6 3.7 -5.1 40 4.4 S 7 9 4 5 1019.9 1019.5 0.0
21/02:30am 7.9 3.9 -5.2 39 4.6 S 7 9 4 5 1019.9 1019.5 0.0
21/02:00am 7.9 3.9 -5.9 37 4.7 S 7 9 4 5 1020.1 1019.7 0.0
21/01:30am 8.8 4.8 -5.8 35 5.1 S 7 9 4 5 1020.2 1019.8 0.0
21/01:00am 8.9 4.9 -5.7 35 5.1 S 7 9 4 5 1020.3 1019.9 0.0
21/12:30am 9.7 5.3 -5.8 33 5.5 S 9 9 5 5 1020.3 1019.9 0.0
21/12:00am 10.4 6.0 -5.6 32 5.7 S 9 13 5 7 1020.2 1019.8 0.0
 
Date/Time
EST
Temp
°C
App
Temp
°C
Dew
Point
Rel
Hum
%
Delta-T
°C
Wind Press
QNH
hPa
Press
MSL
hPa
Rain
since 9 am
mm
Dir
 
Spd
km/h
Gust
km/h
Spd
kts
Gust
kts
20/11:30pm 10.2 5.5 -5.3 33 5.6 S 11 13 6 7 1020.4 1020.1 0.0
20/11:00pm 10.3 5.9 -6.1 31 5.8 S 9 11 5 6 1020.5 1020.2 0.0
20/10:30pm 11.0 6.6 -5.9 30 6.0 S 9 11 5 6 1020.4 1020.1 0.0
20/10:00pm 11.6 6.8 -6.3 28 6.4 S 11 13 6 7 1020.5 1020.2 0.0
20/09:30pm 12.5 8.1 -6.0 27 6.7 S 9 11 5 6 1020.4 1020.1 0.0
20/09:00pm 13.1 8.7 -5.9 26 6.9 S 9 11 5 6 1020.2 1019.8 0.0
20/08:30pm 13.3 8.4 -6.8 24 7.2 S 11 11 6 6 1019.9 1019.5 0.0
20/08:00pm 14.8 9.9 -6.7 22 7.9 S 11 11 6 6 1019.4 1019.0 0.0
20/07:30pm 16.8 12.0 -6.3 20 8.8 S 11 13 6 7 1018.8 1018.4 0.0

Other Formats:

Comma delimited format used in spreadsheet applications
http://www.bom.gov.au/fwo/IDQ60801/IDQ60801.94344.axf

JavaScript Object Notation format (JSON) in row-major order
http://www.bom.gov.au/fwo/IDQ60801/IDQ60801.94344.json